sensor_id;sensor_type;location;lat;lon;timestamp;pressure;altitude;pressure_sealevel;temperature;humidity
67434;BME280;54305;47.950;6.572;2023-05-03T00:02:21;94896.13;;;7.86;100.00
67434;BME280;54305;47.950;6.572;2023-05-03T00:04:46;94895.75;;;7.91;100.00
67434;BME280;54305;47.950;6.572;2023-05-03T00:07:12;94903.78;;;7.88;100.00
67434;BME280;54305;47.950;6.572;2023-05-03T00:09:37;94901.59;;;7.83;100.00
67434;BME280;54305;47.950;6.572;2023-05-03T00:12:03;94905.09;;;7.73;100.00
67434;BME280;54305;47.950;6.572;2023-05-03T00:14:29;94898.50;;;7.69;100.00
67434;BME280;54305;47.950;6.572;2023-05-03T00:16:55;94906.41;;;7.67;100.00
67434;BME280;54305;47.950;6.572;2023-05-03T00:19:20;94904.22;;;7.63;100.00
67434;BME280;54305;47.950;6.572;2023-05-03T00:21:45;94893.84;;;7.63;100.00
67434;BME280;54305;47.950;6.572;2023-05-03T00:24:11;94893.31;;;7.59;100.00
67434;BME280;54305;47.950;6.572;2023-05-03T00:26:36;94899.81;;;7.54;100.00
67434;BME280;54305;47.950;6.572;2023-05-03T00:29:01;94887.81;;;7.53;100.00
67434;BME280;54305;47.950;6.572;2023-05-03T00:31:26;94887.81;;;7.53;100.00
67434;BME280;54305;47.950;6.572;2023-05-03T00:33:52;94884.78;;;7.48;100.00
67434;BME280;54305;47.950;6.572;2023-05-03T00:36:17;94877.97;;;7.47;100.00
67434;BME280;54305;47.950;6.572;2023-05-03T00:38:42;94874.66;;;7.45;100.00
67434;BME280;54305;47.950;6.572;2023-05-03T00:41:10;94865.50;;;7.41;100.00
67434;BME280;54305;47.950;6.572;2023-05-03T00:43:37;94864.81;;;7.39;100.00
67434;BME280;54305;47.950;6.572;2023-05-03T00:46:05;94865.06;;;7.36;100.00
67434;BME280;54305;47.950;6.572;2023-05-03T00:48:30;94860.97;;;7.33;100.00
67434;BME280;54305;47.950;6.572;2023-05-03T00:50:56;94856.31;;;7.27;100.00
67434;BME280;54305;47.950;6.572;2023-05-03T00:53:22;94854.13;;;7.23;100.00
67434;BME280;54305;47.950;6.572;2023-05-03T00:55:47;94857.38;;;7.25;100.00
67434;BME280;54305;47.950;6.572;2023-05-03T00:58:15;94858.47;;;7.22;100.00
67434;BME280;54305;47.950;6.572;2023-05-03T01:00:41;94850.56;;;7.24;100.00
67434;BME280;54305;47.950;6.572;2023-05-03T01:03:06;94853.28;;;7.22;100.00
67434;BME280;54305;47.950;6.572;2023-05-03T01:05:32;94852.47;;;7.22;100.00
67434;BME280;54305;47.950;6.572;2023-05-03T01:08:08;94845.53;;;7.22;100.00
67434;BME280;54305;47.950;6.572;2023-05-03T01:10:50;94851.97;;;7.28;100.00
67434;BME280;54305;47.950;6.572;2023-05-03T01:13:23;94841.31;;;7.31;100.00
67434;BME280;54305;47.950;6.572;2023-05-03T01:16:05;94841.31;;;7.31;100.00
67434;BME280;54305;47.950;6.572;2023-05-03T01:18:33;94834.50;;;7.30;100.00
67434;BME280;54305;47.950;6.572;2023-05-03T01:21:01;94832.88;;;7.29;100.00
67434;BME280;54305;47.950;6.572;2023-05-03T01:23:35;94827.69;;;7.29;100.00
67434;BME280;54305;47.950;6.572;2023-05-03T01:26:13;94827.41;;;7.32;100.00
67434;BME280;54305;47.950;6.572;2023-05-03T01:28:38;94822.41;;;7.30;100.00
67434;BME280;54305;47.950;6.572;2023-05-03T01:31:03;94824.16;;;7.30;100.00
67434;BME280;54305;47.950;6.572;2023-05-03T01:33:32;94819.09;;;7.28;100.00
67434;BME280;54305;47.950;6.572;2023-05-03T01:36:01;94824.16;;;7.30;100.00
67434;BME280;54305;47.950;6.572;2023-05-03T01:38:32;94823.31;;;7.29;100.00
67434;BME280;54305;47.950;6.572;2023-05-03T01:41:01;94829.34;;;7.30;100.00
67434;BME280;54305;47.950;6.572;2023-05-03T01:43:27;94829.56;;;7.27;100.00
67434;BME280;54305;47.950;6.572;2023-05-03T01:45:55;94827.13;;;7.25;100.00
67434;BME280;54305;47.950;6.572;2023-05-03T01:48:20;94821.13;;;7.25;100.00
67434;BME280;54305;47.950;6.572;2023-05-03T01:50:45;94814.56;;;7.21;100.00
67434;BME280;54305;47.950;6.572;2023-05-03T01:53:11;94817.56;;;7.16;100.00
67434;BME280;54305;47.950;6.572;2023-05-03T01:55:36;94821.66;;;7.19;100.00
67434;BME280;54305;47.950;6.572;2023-05-03T01:58:01;94824.59;;;7.14;100.00
67434;BME280;54305;47.950;6.572;2023-05-03T02:00:26;94825.69;;;7.12;100.00
67434;BME280;54305;47.950;6.572;2023-05-03T02:02:52;94831.16;;;7.09;100.00
67434;BME280;54305;47.950;6.572;2023-05-03T02:05:17;94836.81;;;7.03;100.00
67434;BME280;54305;47.950;6.572;2023-05-03T02:07:42;94831.38;;;7.06;100.00
67434;BME280;54305;47.950;6.572;2023-05-03T02:10:08;94834.09;;;7.04;100.00
67434;BME280;54305;47.950;6.572;2023-05-03T02:12:38;94837.88;;;7.00;100.00
67434;BME280;54305;47.950;6.572;2023-05-03T02:15:03;94837.31;;;6.97;100.00
67434;BME280;54305;47.950;6.572;2023-05-03T02:17:29;94840.31;;;6.92;100.00
67434;BME280;54305;47.950;6.572;2023-05-03T02:19:54;94836.66;;;6.95;100.00
67434;BME280;54305;47.950;6.572;2023-05-03T02:22:19;94845.09;;;6.97;100.00
67434;BME280;54305;47.950;6.572;2023-05-03T02:24:44;94834.75;;;6.97;100.00
67434;BME280;54305;47.950;6.572;2023-05-03T02:27:10;94843.22;;;6.99;100.00
67434;BME280;54305;47.950;6.572;2023-05-03T02:29:36;94836.25;;;6.99;100.00
67434;BME280;54305;47.950;6.572;2023-05-03T02:32:01;94838.19;;;7.07;100.00
67434;BME280;54305;47.950;6.572;2023-05-03T02:34:29;94840.66;;;7.08;100.00
67434;BME280;54305;47.950;6.572;2023-05-03T02:36:54;94835.38;;;7.10;100.00
67434;BME280;54305;47.950;6.572;2023-05-03T02:39:20;94835.63;;;7.07;100.00
67434;BME280;54305;47.950;6.572;2023-05-03T02:41:45;94837.13;;;7.09;100.00
67434;BME280;54305;47.950;6.572;2023-05-03T02:44:11;94830.19;;;7.10;100.00
67434;BME280;54305;47.950;6.572;2023-05-03T02:46:36;94824.19;;;7.09;100.00
67434;BME280;54305;47.950;6.572;2023-05-03T02:49:01;94820.50;;;7.12;100.00
67434;BME280;54305;47.950;6.572;2023-05-03T02:51:27;94830.88;;;7.12;100.00
67434;BME280;54305;47.950;6.572;2023-05-03T02:53:52;94809.47;;;7.10;100.00
67434;BME280;54305;47.950;6.572;2023-05-03T02:56:17;94827.19;;;7.14;100.00
67434;BME280;54305;47.950;6.572;2023-05-03T02:58:43;94823.53;;;7.17;100.00
67434;BME280;54305;47.950;6.572;2023-05-03T03:01:09;94830.63;;;7.15;100.00
67434;BME280;54305;47.950;6.572;2023-05-03T03:03:34;94821.22;;;7.14;100.00
67434;BME280;54305;47.950;6.572;2023-05-03T03:06:00;94828.16;;;7.13;100.00
67434;BME280;54305;47.950;6.572;2023-05-03T03:08:25;94822.19;;;7.13;100.00
67434;BME280;54305;47.950;6.572;2023-05-03T03:10:50;94827.06;;;7.16;100.00
67434;BME280;54305;47.950;6.572;2023-05-03T03:13:15;94816.72;;;7.16;100.00
67434;BME280;54305;47.950;6.572;2023-05-03T03:15:41;94818.63;;;7.14;100.00
67434;BME280;54305;47.950;6.572;2023-05-03T03:18:06;94812.38;;;7.16;100.00
67434;BME280;54305;47.950;6.572;2023-05-03T03:20:31;94804.19;;;7.21;100.00
67434;BME280;54305;47.950;6.572;2023-05-03T03:22:56;94802.56;;;7.20;100.00
67434;BME280;54305;47.950;6.572;2023-05-03T03:25:22;94802.56;;;7.20;100.00
67434;BME280;54305;47.950;6.572;2023-05-03T03:27:47;94802.56;;;7.20;100.00
67434;BME280;54305;47.950;6.572;2023-05-03T03:30:12;94797.63;;;7.17;100.00
67434;BME280;54305;47.950;6.572;2023-05-03T03:32:38;94798.88;;;7.13;100.00
67434;BME280;54305;47.950;6.572;2023-05-03T03:35:03;94798.81;;;7.03;100.00
67434;BME280;54305;47.950;6.572;2023-05-03T03:37:29;94801.78;;;6.99;100.00
67434;BME280;54305;47.950;6.572;2023-05-03T03:39:54;94798.75;;;6.94;100.00
67434;BME280;54305;47.950;6.572;2023-05-03T03:42:19;94805.38;;;6.87;100.00
67434;BME280;54305;47.950;6.572;2023-05-03T03:44:46;94800.47;;;6.84;100.00
67434;BME280;54305;47.950;6.572;2023-05-03T03:47:11;94811.06;;;6.81;100.00
67434;BME280;54305;47.950;6.572;2023-05-03T03:49:36;94811.31;;;6.78;100.00
67434;BME280;54305;47.950;6.572;2023-05-03T03:52:02;94804.75;;;6.74;100.00
67434;BME280;54305;47.950;6.572;2023-05-03T03:54:27;94799.34;;;6.77;100.00
67434;BME280;54305;47.950;6.572;2023-05-03T03:56:52;94802.75;;;6.77;100.00
67434;BME280;54305;47.950;6.572;2023-05-03T03:59:18;94809.16;;;6.83;100.00
67434;BME280;54305;47.950;6.572;2023-05-03T04:01:43;94803.75;;;6.86;100.00
67434;BME280;54305;47.950;6.572;2023-05-03T04:04:08;94805.66;;;6.84;100.00
67434;BME280;54305;47.950;6.572;2023-05-03T04:06:34;94802.34;;;6.82;100.00
67434;BME280;54305;47.950;6.572;2023-05-03T04:08:59;94798.25;;;6.79;100.00
67434;BME280;54305;47.950;6.572;2023-05-03T04:11:24;94808.56;;;6.70;100.00
67434;BME280;54305;47.950;6.572;2023-05-03T04:13:49;94808.50;;;6.60;100.00
67434;BME280;54305;47.950;6.572;2023-05-03T04:16:15;94815.81;;;6.55;100.00
67434;BME280;54305;47.950;6.572;2023-05-03T04:18:40;94817.13;;;6.50;100.00
67434;BME280;54305;47.950;6.572;2023-05-03T04:21:06;94811.94;;;6.50;100.00
67434;BME280;54305;47.950;6.572;2023-05-03T04:23:32;94817.28;;;6.48;100.00
67434;BME280;54305;47.950;6.572;2023-05-03T04:25:57;94818.47;;;6.44;100.00
67434;BME280;54305;47.950;6.572;2023-05-03T04:28:22;94819.53;;;6.42;100.00
67434;BME280;54305;47.950;6.572;2023-05-03T04:30:49;94817.63;;;6.44;100.00
67434;BME280;54305;47.950;6.572;2023-05-03T04:33:15;94821.41;;;6.40;100.00
67434;BME280;54305;47.950;6.572;2023-05-03T04:35:41;94821.66;;;6.37;100.00
67434;BME280;54305;47.950;6.572;2023-05-03T04:38:06;94818.38;;;6.35;100.00
67434;BME280;54305;47.950;6.572;2023-05-03T04:40:32;94816.72;;;6.34;100.00
67434;BME280;54305;47.950;6.572;2023-05-03T04:42:58;94809.91;;;6.33;100.00
67434;BME280;54305;47.950;6.572;2023-05-03T04:45:23;94814.59;;;6.39;100.00
67434;BME280;54305;47.950;6.572;2023-05-03T04:47:51;94809.50;;;6.48;100.00
67434;BME280;54305;47.950;6.572;2023-05-03T04:50:16;94808.16;;;6.54;100.00
67434;BME280;54305;47.950;6.572;2023-05-03T04:52:41;94814.50;;;6.61;100.00
67434;BME280;54305;47.950;6.572;2023-05-03T04:55:06;94812.66;;;6.72;100.00
67434;BME280;54305;47.950;6.572;2023-05-03T04:57:32;94805.66;;;6.84;100.00
67434;BME280;54305;47.950;6.572;2023-05-03T04:59:57;94808.72;;;6.98;100.00
67434;BME280;54305;47.950;6.572;2023-05-03T05:02:22;94815.31;;;7.12;100.00
67434;BME280;54305;47.950;6.572;2023-05-03T05:04:48;94797.72;;;7.36;100.00
67434;BME280;54305;47.950;6.572;2023-05-03T05:07:13;94804.88;;;7.53;100.00
67434;BME280;54305;47.950;6.572;2023-05-03T05:09:39;94799.72;;;7.62;100.00
67434;BME280;54305;47.950;6.572;2023-05-03T05:12:04;94803.03;;;7.74;100.00
67434;BME280;54305;47.950;6.572;2023-05-03T05:14:30;94814.22;;;7.84;100.00
67434;BME280;54305;47.950;6.572;2023-05-03T05:16:55;94807.16;;;7.95;100.00
67434;BME280;54305;47.950;6.572;2023-05-03T05:19:21;94802.69;;;8.07;100.00
67434;BME280;54305;47.950;6.572;2023-05-03T05:21:46;94799.00;;;8.19;100.00
67434;BME280;54305;47.950;6.572;2023-05-03T05:24:12;94797.00;;;8.32;100.00
67434;BME280;54305;47.950;6.572;2023-05-03T05:26:37;94801.50;;;8.49;100.00
67434;BME280;54305;47.950;6.572;2023-05-03T05:29:02;94805.03;;;8.67;100.00
67434;BME280;54305;47.950;6.572;2023-05-03T05:31:27;94801.03;;;8.82;100.00
67434;BME280;54305;47.950;6.572;2023-05-03T05:33:53;94798.97;;;8.95;100.00
67434;BME280;54305;47.950;6.572;2023-05-03T05:36:18;94802.09;;;9.08;100.00
67434;BME280;54305;47.950;6.572;2023-05-03T05:38:44;94799.59;;;9.25;100.00
67434;BME280;54305;47.950;6.572;2023-05-03T05:41:09;94800.91;;;9.39;100.00
67434;BME280;54305;47.950;6.572;2023-05-03T05:43:35;94798.75;;;9.61;100.00
67434;BME280;54305;47.950;6.572;2023-05-03T05:46:00;94794.94;;;9.83;100.00
67434;BME280;54305;47.950;6.572;2023-05-03T05:48:25;94790.03;;;10.07;100.00
67434;BME280;54305;47.950;6.572;2023-05-03T05:50:51;94790.78;;;10.17;100.00
67434;BME280;54305;47.950;6.572;2023-05-03T05:53:16;94788.72;;;10.38;100.00
67434;BME280;54305;47.950;6.572;2023-05-03T05:55:41;94786.94;;;10.56;100.00
67434;BME280;54305;47.950;6.572;2023-05-03T05:58:06;94777.00;;;10.77;100.00
67434;BME280;54305;47.950;6.572;2023-05-03T06:00:32;94785.56;;;10.87;100.00
67434;BME280;54305;47.950;6.572;2023-05-03T06:02:57;94780.44;;;11.03;100.00
67434;BME280;54305;47.950;6.572;2023-05-03T06:05:22;94780.25;;;11.22;100.00
67434;BME280;54305;47.950;6.572;2023-05-03T06:07:48;94782.22;;;11.53;100.00
67434;BME280;54305;47.950;6.572;2023-05-03T06:10:13;94779.84;;;11.60;100.00
67434;BME280;54305;47.950;6.572;2023-05-03T06:12:39;94782.03;;;11.80;100.00
67434;BME280;54305;47.950;6.572;2023-05-03T06:15:05;94780.00;;;12.08;100.00
67434;BME280;54305;47.950;6.572;2023-05-03T06:17:30;94781.31;;;12.12;100.00
67434;BME280;54305;47.950;6.572;2023-05-03T06:19:56;94770.59;;;12.31;100.00
67434;BME280;54305;47.950;6.572;2023-05-03T06:22:21;94782.69;;;12.48;97.98
67434;BME280;54305;47.950;6.572;2023-05-03T06:24:47;94780.56;;;12.59;93.18
67434;BME280;54305;47.950;6.572;2023-05-03T06:27:12;94786.28;;;12.63;92.78
67434;BME280;54305;47.950;6.572;2023-05-03T06:29:37;94795.47;;;12.75;93.82
67434;BME280;54305;47.950;6.572;2023-05-03T06:32:02;94792.88;;;12.99;96.88
67434;BME280;54305;47.950;6.572;2023-05-03T06:34:28;94796.13;;;13.01;95.53
67434;BME280;54305;47.950;6.572;2023-05-03T06:36:54;94796.44;;;13.14;88.17
67434;BME280;54305;47.950;6.572;2023-05-03T06:39:19;94800.97;;;13.36;88.89
67434;BME280;54305;47.950;6.572;2023-05-03T06:41:44;94801.97;;;13.43;83.95
67434;BME280;54305;47.950;6.572;2023-05-03T06:44:10;94806.81;;;13.62;89.57
67434;BME280;54305;47.950;6.572;2023-05-03T06:46:35;94798.75;;;13.79;87.70
67434;BME280;54305;47.950;6.572;2023-05-03T06:49:00;94801.59;;;14.00;83.02
67434;BME280;54305;47.950;6.572;2023-05-03T06:51:26;94804.13;;;14.24;86.30
67434;BME280;54305;47.950;6.572;2023-05-03T06:53:53;94803.28;;;14.32;79.20
67434;BME280;54305;47.950;6.572;2023-05-03T06:56:20;94802.31;;;14.33;82.43
67434;BME280;54305;47.950;6.572;2023-05-03T06:58:46;94808.03;;;14.59;79.73
67434;BME280;54305;47.950;6.572;2023-05-03T07:01:11;94812.53;;;14.73;75.98
67434;BME280;54305;47.950;6.572;2023-05-03T07:03:36;94804.06;;;15.08;78.90
67434;BME280;54305;47.950;6.572;2023-05-03T07:06:02;94806.97;;;15.13;74.16
67434;BME280;54305;47.950;6.572;2023-05-03T07:08:27;94813.72;;;15.30;75.63
67434;BME280;54305;47.950;6.572;2023-05-03T07:10:53;94808.59;;;15.14;70.23
67434;BME280;54305;47.950;6.572;2023-05-03T07:13:18;94809.97;;;15.47;73.54
67434;BME280;54305;47.950;6.572;2023-05-03T07:15:43;94813.16;;;15.57;69.72
67434;BME280;54305;47.950;6.572;2023-05-03T07:18:10;94816.72;;;15.64;69.79
67434;BME280;54305;47.950;6.572;2023-05-03T07:20:35;94812.16;;;15.58;68.10
67434;BME280;54305;47.950;6.572;2023-05-03T07:23:00;94804.41;;;15.79;69.83
67434;BME280;54305;47.950;6.572;2023-05-03T07:25:25;94805.75;;;16.04;66.93
67434;BME280;54305;47.950;6.572;2023-05-03T07:27:51;94819.41;;;16.14;64.44
67434;BME280;54305;47.950;6.572;2023-05-03T07:30:17;94806.75;;;16.03;64.94
67434;BME280;54305;47.950;6.572;2023-05-03T07:32:42;94809.06;;;16.27;66.27
67434;BME280;54305;47.950;6.572;2023-05-03T07:35:07;94803.72;;;16.20;64.22
67434;BME280;54305;47.950;6.572;2023-05-03T07:37:33;94810.16;;;16.47;65.08
67434;BME280;54305;47.950;6.572;2023-05-03T07:39:58;94799.84;;;16.66;65.16
67434;BME280;54305;47.950;6.572;2023-05-03T07:42:24;94800.41;;;16.83;64.76
67434;BME280;54305;47.950;6.572;2023-05-03T07:44:49;94793.84;;;16.93;62.72
67434;BME280;54305;47.950;6.572;2023-05-03T07:47:14;94800.41;;;16.83;60.06
67434;BME280;54305;47.950;6.572;2023-05-03T07:49:40;94783.91;;;16.89;63.53
67434;BME280;54305;47.950;6.572;2023-05-03T07:52:05;94776.50;;;16.99;60.45
67434;BME280;54305;47.950;6.572;2023-05-03T07:54:30;94783.88;;;17.10;62.26
67434;BME280;54305;47.950;6.572;2023-05-03T07:56:56;94784.84;;;17.30;61.42
67434;BME280;54305;47.950;6.572;2023-05-03T07:59:21;94783.38;;;17.42;57.70
67434;BME280;54305;47.950;6.572;2023-05-03T08:01:46;94787.75;;;17.62;60.98
67434;BME280;54305;47.950;6.572;2023-05-03T08:04:12;94787.09;;;17.88;59.23
67434;BME280;54305;47.950;6.572;2023-05-03T08:06:37;94788.25;;;17.79;55.99
67434;BME280;54305;47.950;6.572;2023-05-03T08:09:02;94790.97;;;17.92;57.25
67434;BME280;54305;47.950;6.572;2023-05-03T08:11:28;94794.44;;;17.99;57.98
67434;BME280;54305;47.950;6.572;2023-05-03T08:13:54;94792.47;;;18.41;58.09
67434;BME280;54305;47.950;6.572;2023-05-03T08:16:19;94782.84;;;18.27;57.25
67434;BME280;54305;47.950;6.572;2023-05-03T08:18:45;94791.03;;;18.39;55.68
67434;BME280;54305;47.950;6.572;2023-05-03T08:21:11;94782.94;;;18.47;53.72
67434;BME280;54305;47.950;6.572;2023-05-03T08:23:37;94777.78;;;18.92;56.87
67434;BME280;54305;47.950;6.572;2023-05-03T08:26:02;94781.16;;;18.67;54.28
67434;BME280;54305;47.950;6.572;2023-05-03T08:28:28;94780.19;;;18.81;51.36
67434;BME280;54305;47.950;6.572;2023-05-03T08:30:54;94776.91;;;18.72;49.87
67434;BME280;54305;47.950;6.572;2023-05-03T08:33:19;94778.34;;;18.75;50.82
67434;BME280;54305;47.950;6.572;2023-05-03T08:35:45;94783.69;;;18.94;52.85
67434;BME280;54305;47.950;6.572;2023-05-03T08:38:10;94784.31;;;19.16;50.80
67434;BME280;54305;47.950;6.572;2023-05-03T08:40:35;94787.38;;;19.45;52.38
67434;BME280;54305;47.950;6.572;2023-05-03T08:43:07;94778.63;;;19.71;49.53
67434;BME280;54305;47.950;6.572;2023-05-03T08:45:33;94781.06;;;19.79;49.30
67434;BME280;54305;47.950;6.572;2023-05-03T08:47:58;94784.53;;;19.34;48.77
67434;BME280;54305;47.950;6.572;2023-05-03T08:50:26;94781.03;;;19.01;46.43
67434;BME280;54305;47.950;6.572;2023-05-03T08:52:51;94779.44;;;19.13;47.75
67434;BME280;54305;47.950;6.572;2023-05-03T08:55:16;94780.69;;;19.56;50.25
67434;BME280;54305;47.950;6.572;2023-05-03T08:57:42;94779.00;;;19.94;47.63
67434;BME280;54305;47.950;6.572;2023-05-03T09:00:07;94779.66;;;20.47;48.26
67434;BME280;54305;47.950;6.572;2023-05-03T09:02:35;94781.38;;;20.28;46.42
67434;BME280;54305;47.950;6.572;2023-05-03T09:05:03;94779.84;;;19.75;46.02
67434;BME280;54305;47.950;6.572;2023-05-03T09:07:29;94777.44;;;19.47;45.38
67434;BME280;54305;47.950;6.572;2023-05-03T09:09:54;94777.38;;;19.86;47.25
67434;BME280;54305;47.950;6.572;2023-05-03T09:12:42;94781.06;;;19.59;45.35
67434;BME280;54305;47.950;6.572;2023-05-03T09:15:13;94777.34;;;20.13;45.04
67434;BME280;54305;47.950;6.572;2023-05-03T09:17:45;94779.03;;;20.51;45.88
67434;BME280;54305;47.950;6.572;2023-05-03T09:20:10;94781.53;;;20.77;43.49
67434;BME280;54305;47.950;6.572;2023-05-03T09:22:35;94778.22;;;20.88;43.37
67434;BME280;54305;47.950;6.572;2023-05-03T09:25:04;94780.66;;;20.96;42.67
67434;BME280;54305;47.950;6.572;2023-05-03T09:27:29;94781.06;;;20.87;40.93
67434;BME280;54305;47.950;6.572;2023-05-03T09:29:54;94781.53;;;20.77;43.63
67434;BME280;54305;47.950;6.572;2023-05-03T09:32:20;94777.84;;;20.85;43.29
67434;BME280;54305;47.950;6.572;2023-05-03T09:34:46;94773.47;;;21.34;41.11
67434;BME280;54305;47.950;6.572;2023-05-03T09:37:12;94758.09;;;21.67;39.23
67434;BME280;54305;47.950;6.572;2023-05-03T09:39:40;94766.38;;;21.95;40.64
67434;BME280;54305;47.950;6.572;2023-05-03T09:42:24;94762.53;;;21.73;39.02
67434;BME280;54305;47.950;6.572;2023-05-03T09:44:49;94766.53;;;22.00;42.09
67434;BME280;54305;47.950;6.572;2023-05-03T09:47:15;94764.63;;;22.43;42.20
67434;BME280;54305;47.950;6.572;2023-05-03T09:49:40;94762.19;;;22.42;38.68
67434;BME280;54305;47.950;6.572;2023-05-03T09:52:06;94755.78;;;21.95;37.50
67434;BME280;54305;47.950;6.572;2023-05-03T09:54:32;94761.38;;;22.05;39.68
67434;BME280;54305;47.950;6.572;2023-05-03T09:56:59;94761.84;;;22.02;40.89
67434;BME280;54305;47.950;6.572;2023-05-03T09:59:26;94763.63;;;22.26;41.67
67434;BME280;54305;47.950;6.572;2023-05-03T10:01:53;94756.38;;;22.15;38.65
67434;BME280;54305;47.950;6.572;2023-05-03T10:04:19;94760.34;;;22.24;38.47
67434;BME280;54305;47.950;6.572;2023-05-03T10:06:47;94747.22;;;22.29;36.84
67434;BME280;54305;47.950;6.572;2023-05-03T10:11:47;94756.38;;;22.15;36.81
67434;BME280;54305;47.950;6.572;2023-05-03T10:14:14;94742.53;;;22.31;37.66
67434;BME280;54305;47.950;6.572;2023-05-03T10:16:41;94726.69;;;22.72;38.01
67434;BME280;54305;47.950;6.572;2023-05-03T10:22:09;94726.78;;;23.59;37.53
67434;BME280;54305;47.950;6.572;2023-05-03T10:27:19;94734.88;;;24.22;34.39
67434;BME280;54305;47.950;6.572;2023-05-03T10:29:45;94730.47;;;24.16;35.21
67434;BME280;54305;47.950;6.572;2023-05-03T10:32:34;94732.44;;;24.20;34.95
67434;BME280;54305;47.950;6.572;2023-05-03T10:37:26;94733.03;;;24.11;33.34
67434;BME280;54305;47.950;6.572;2023-05-03T10:39:52;94728.53;;;24.62;35.89
67434;BME280;54305;47.950;6.572;2023-05-03T10:42:19;94731.66;;;24.59;34.22
67434;BME280;54305;47.950;6.572;2023-05-03T10:49:39;94722.41;;;25.34;31.01
67434;BME280;54305;47.950;6.572;2023-05-03T10:52:31;94712.81;;;23.75;32.57
67434;BME280;54305;47.950;6.572;2023-05-03T10:54:49;94717.22;;;24.04;34.15
67434;BME280;54305;47.950;6.572;2023-05-03T10:57:15;94719.28;;;24.02;32.53
67434;BME280;54305;47.950;6.572;2023-05-03T10:59:46;94709.13;;;23.99;30.70
67434;BME280;54305;47.950;6.572;2023-05-03T11:02:14;94706.78;;;23.68;32.59
67434;BME280;54305;47.950;6.572;2023-05-03T11:04:41;94716.50;;;23.97;33.76
67434;BME280;54305;47.950;6.572;2023-05-03T11:07:09;94717.78;;;24.06;32.79
67434;BME280;54305;47.950;6.572;2023-05-03T11:09:34;94718.09;;;24.21;34.40
67434;BME280;54305;47.950;6.572;2023-05-03T11:12:04;94705.06;;;24.36;32.74
67434;BME280;54305;47.950;6.572;2023-05-03T11:14:29;94696.06;;;24.93;33.27
67434;BME280;54305;47.950;6.572;2023-05-03T11:16:55;94701.31;;;25.49;32.38
67434;BME280;54305;47.950;6.572;2023-05-03T11:19:21;94701.63;;;25.36;31.78
67434;BME280;54305;47.950;6.572;2023-05-03T11:21:47;94688.22;;;25.31;32.03
67434;BME280;54305;47.950;6.572;2023-05-03T11:24:12;94691.19;;;25.51;30.48
67434;BME280;54305;47.950;6.572;2023-05-03T11:26:38;94685.72;;;25.41;31.56
67434;BME280;54305;47.950;6.572;2023-05-03T11:29:03;94688.59;;;24.62;27.18
67434;BME280;54305;47.950;6.572;2023-05-03T11:31:29;94690.59;;;24.44;29.80
67434;BME280;54305;47.950;6.572;2023-05-03T11:33:54;94675.72;;;24.87;32.34
67434;BME280;54305;47.950;6.572;2023-05-03T11:36:20;94676.88;;;25.08;34.37
67434;BME280;54305;47.950;6.572;2023-05-03T11:38:45;94677.75;;;25.13;31.93
67434;BME280;54305;47.950;6.572;2023-05-03T11:41:14;94682.03;;;25.14;29.62
67434;BME280;54305;47.950;6.572;2023-05-03T11:43:44;94666.69;;;24.88;31.23
67434;BME280;54305;47.950;6.572;2023-05-03T11:46:10;94678.41;;;24.59;31.55
67434;BME280;54305;47.950;6.572;2023-05-03T11:48:36;94672.84;;;25.05;31.88
67434;BME280;54305;47.950;6.572;2023-05-03T11:51:05;94664.94;;;25.10;30.71
67434;BME280;54305;47.950;6.572;2023-05-03T11:53:31;94660.78;;;24.58;31.42
67434;BME280;54305;47.950;6.572;2023-05-03T11:55:57;94654.13;;;24.44;32.60
67434;BME280;54305;47.950;6.572;2023-05-03T11:58:23;94653.38;;;24.60;33.95
67434;BME280;54305;47.950;6.572;2023-05-03T12:00:49;94656.56;;;24.46;31.14
67434;BME280;54305;47.950;6.572;2023-05-03T12:03:16;94662.13;;;24.72;31.82
67434;BME280;54305;47.950;6.572;2023-05-03T12:05:41;94655.47;;;25.52;31.34
67434;BME280;54305;47.950;6.572;2023-05-03T12:08:08;94652.50;;;25.49;31.42
67434;BME280;54305;47.950;6.572;2023-05-03T12:10:33;94652.63;;;25.09;31.61
67434;BME280;54305;47.950;6.572;2023-05-03T12:12:59;94663.00;;;25.55;31.95
67434;BME280;54305;47.950;6.572;2023-05-03T12:15:26;94664.25;;;25.69;31.41
67434;BME280;54305;47.950;6.572;2023-05-03T12:17:54;94662.19;;;25.55;29.88
67434;BME280;54305;47.950;6.572;2023-05-03T12:20:20;94656.22;;;25.31;31.27
67434;BME280;54305;47.950;6.572;2023-05-03T12:23:07;94650.03;;;25.64;30.44
67434;BME280;54305;47.950;6.572;2023-05-03T12:25:34;94653.03;;;26.05;32.47
67434;BME280;54305;47.950;6.572;2023-05-03T12:28:04;94651.25;;;26.11;30.16
67434;BME280;54305;47.950;6.572;2023-05-03T12:30:29;94638.34;;;25.15;30.38
67434;BME280;54305;47.950;6.572;2023-05-03T12:32:55;94639.88;;;25.11;31.76
67434;BME280;54305;47.950;6.572;2023-05-03T12:35:21;94632.16;;;25.81;32.13
67434;BME280;54305;47.950;6.572;2023-05-03T12:37:47;94630.53;;;26.01;30.78
67434;BME280;54305;47.950;6.572;2023-05-03T12:40:12;94629.13;;;25.77;29.63
67434;BME280;54305;47.950;6.572;2023-05-03T12:42:38;94628.34;;;25.93;31.26
67434;BME280;54305;47.950;6.572;2023-05-03T12:45:03;94623.94;;;25.87;30.28
67434;BME280;54305;47.950;6.572;2023-05-03T12:47:29;94625.56;;;25.88;31.99
67434;BME280;54305;47.950;6.572;2023-05-03T12:49:55;94619.88;;;26.01;29.66
67434;BME280;54305;47.950;6.572;2023-05-03T12:52:20;94615.66;;;26.05;30.72
67434;BME280;54305;47.950;6.572;2023-05-03T12:54:46;94609.00;;;26.29;29.93
67434;BME280;54305;47.950;6.572;2023-05-03T12:57:11;94614.63;;;26.81;30.59
67434;BME280;54305;47.950;6.572;2023-05-03T12:59:38;94611.56;;;26.19;28.89
67434;BME280;54305;47.950;6.572;2023-05-03T13:02:03;94607.16;;;24.99;30.04
67434;BME280;54305;47.950;6.572;2023-05-03T13:04:30;94613.72;;;25.41;31.13
67434;BME280;54305;47.950;6.572;2023-05-03T13:06:56;94609.03;;;25.91;28.78
67434;BME280;54305;47.950;6.572;2023-05-03T13:09:22;94600.91;;;25.43;31.37
67434;BME280;54305;47.950;6.572;2023-05-03T13:11:47;94607.66;;;25.67;29.11